createdAt,value
2022-08-25T00:02:17.265Z,101164.59
2022-08-25T00:04:44.891Z,101165.84
2022-08-25T00:07:21.341Z,101169.53
2022-08-25T00:09:48.445Z,101164.16
2022-08-25T00:12:15.309Z,101168.03
2022-08-25T00:14:43.652Z,101165.50
2022-08-25T00:17:10.253Z,101163.13
2022-08-25T00:19:38.526Z,101166.78
2022-08-25T00:22:09.078Z,101165.25
2022-08-25T00:24:36.011Z,101165.28
2022-08-25T00:27:03.076Z,101172.19
2022-08-25T00:29:31.468Z,101171.81
2022-08-25T00:31:58.729Z,101163.13
2022-08-25T00:34:29.737Z,101173.50
2022-08-25T00:36:56.777Z,101167.09
2022-08-25T00:39:24.567Z,101176.19
2022-08-25T00:41:53.695Z,101172.03
2022-08-25T00:44:20.888Z,101174.38
2022-08-25T00:46:53.801Z,101170.31
2022-08-25T00:49:26.503Z,101170.66
2022-08-25T00:52:02.751Z,101164.66
2022-08-25T00:54:34.658Z,101166.88
2022-08-25T00:57:03.446Z,101165.16
2022-08-25T00:59:30.617Z,101166.78
2022-08-25T01:01:59.226Z,101173.53
2022-08-25T01:04:26.996Z,101158.38
2022-08-25T01:06:54.453Z,101164.09
2022-08-25T01:09:21.688Z,101158.09
2022-08-25T01:11:49.099Z,101168.84
2022-08-25T01:14:18.987Z,101159.41
2022-08-25T01:16:46.411Z,101170.03
2022-08-25T01:19:17.599Z,101172.78
2022-08-25T01:21:50.715Z,101176.44
2022-08-25T01:24:26.258Z,101177.50
2022-08-25T01:26:53.050Z,101183.97
2022-08-25T01:29:22.519Z,101182.34
2022-08-25T01:31:51.018Z,101185.81
2022-08-25T01:34:20.984Z,101185.25
2022-08-25T01:36:47.885Z,101183.13
2022-08-25T01:39:14.952Z,101186.34
2022-08-25T01:42:00.378Z,101173.97
2022-08-25T01:44:27.174Z,101178.09
2022-08-25T01:46:54.688Z,101173.88
2022-08-25T01:49:22.510Z,101170.84
2022-08-25T01:52:12.076Z,101165.47
2022-08-25T01:54:40.378Z,101173.13
2022-08-25T01:57:07.514Z,101162.91
2022-08-25T01:59:34.191Z,101174.06
2022-08-25T02:02:01.359Z,101164.72
2022-08-25T02:04:32.628Z,101165.38
2022-08-25T02:07:04.383Z,101162.47
2022-08-25T02:09:31.698Z,101154.41
2022-08-25T02:11:59.272Z,101162.25
2022-08-25T02:14:26.821Z,101157.75
2022-08-25T02:16:54.491Z,101154.75
2022-08-25T02:19:23.534Z,101160.34
2022-08-25T02:21:51.113Z,101159.25
2022-08-25T02:24:18.042Z,101154.63
2022-08-25T02:26:44.671Z,101154.44
2022-08-25T02:29:11.600Z,101160.66
2022-08-25T02:31:39.302Z,101158.72
2022-08-25T02:34:06.848Z,101156.69
2022-08-25T02:36:33.686Z,101161.84
2022-08-25T02:39:00.530Z,101163.75
2022-08-25T02:41:31.321Z,101164.81
2022-08-25T02:43:59.324Z,101167.19
2022-08-25T02:46:26.179Z,101163.31
2022-08-25T02:48:53.413Z,101163.22
2022-08-25T02:51:26.548Z,101160.44
2022-08-25T02:53:53.219Z,101158.63
2022-08-25T02:56:20.429Z,101155.28
2022-08-25T02:58:47.575Z,101155.69
2022-08-25T03:01:15.891Z,101149.28
2022-08-25T03:03:44.626Z,101153.22
2022-08-25T03:06:14.519Z,101151.31
2022-08-25T03:08:42.246Z,101143.03
2022-08-25T03:11:09.380Z,101151.63
2022-08-25T03:13:36.508Z,101140.47
2022-08-25T03:16:11.207Z,101145.28
2022-08-25T03:18:40.315Z,101149.91
2022-08-25T03:21:07.469Z,101142.81
2022-08-25T03:23:34.643Z,101141.72
2022-08-25T03:26:20.797Z,101147.28
2022-08-25T03:28:47.375Z,101150.09
2022-08-25T03:31:14.068Z,101151.16
2022-08-25T03:33:40.974Z,101139.59
2022-08-25T03:36:08.895Z,101146.91
2022-08-25T03:38:38.338Z,101150.34
2022-08-25T03:41:17.523Z,101152.91
2022-08-25T03:43:44.480Z,101150.66
2022-08-25T03:46:26.627Z,101140.88
2022-08-25T03:48:53.880Z,101140.88
2022-08-25T03:51:28.962Z,101142.69
2022-08-25T03:53:56.594Z,101152.06
2022-08-25T03:56:23.336Z,101142.47
2022-08-25T03:58:51.357Z,101144.59
2022-08-25T04:01:18.149Z,101144.09
2022-08-25T04:03:45.601Z,101145.63
2022-08-25T04:06:12.972Z,101138.19
2022-08-25T04:08:39.921Z,101147.66
2022-08-25T04:11:11.841Z,101148.50
2022-08-25T04:13:38.523Z,101141.63
2022-08-25T04:16:12.854Z,101147.19
2022-08-25T04:18:40.532Z,101149.72
2022-08-25T04:21:11.366Z,101154.06
2022-08-25T04:23:40.772Z,101154.38
2022-08-25T04:26:12.879Z,101162.09
2022-08-25T04:28:40.850Z,101163.72
2022-08-25T04:31:12.390Z,101155.13
2022-08-25T04:33:39.370Z,101156.75
2022-08-25T04:36:11.973Z,101153.00
2022-08-25T04:38:40.587Z,101154.97
2022-08-25T04:41:09.462Z,101156.63
2022-08-25T04:43:37.732Z,101152.38
2022-08-25T04:46:13.731Z,101155.13
2022-08-25T04:48:51.741Z,101152.78
2022-08-25T04:51:23.506Z,101157.81
2022-08-25T04:53:50.791Z,101157.84
2022-08-25T04:56:20.149Z,101155.38
2022-08-25T04:58:47.286Z,101159.47
2022-08-25T05:01:20.435Z,101157.75
2022-08-25T05:03:49.029Z,101158.53
2022-08-25T05:06:16.384Z,101152.50
2022-08-25T05:08:45.861Z,101147.00
2022-08-25T05:11:15.035Z,101148.19
2022-08-25T05:13:42.937Z,101148.28
2022-08-25T05:16:11.486Z,101142.09
2022-08-25T05:18:39.136Z,101144.44
2022-08-25T05:21:18.222Z,101158.50
2022-08-25T05:23:46.927Z,101152.69
2022-08-25T05:26:21.978Z,101149.59
2022-08-25T05:28:50.847Z,101145.53
2022-08-25T05:31:20.516Z,101151.72
2022-08-25T05:33:47.836Z,101154.09
2022-08-25T05:36:15.387Z,101160.78
2022-08-25T05:38:42.379Z,101154.31
2022-08-25T05:41:12.986Z,101150.56
2022-08-25T05:43:41.267Z,101154.81
2022-08-25T05:46:08.542Z,101153.66
2022-08-25T05:48:36.321Z,101153.47
2022-08-25T05:51:06.742Z,101158.63
2022-08-25T05:53:34.573Z,101157.31
2022-08-25T05:56:01.862Z,101159.13
2022-08-25T05:58:30.216Z,101156.53
2022-08-25T06:00:58.572Z,101147.16
2022-08-25T06:03:25.467Z,101146.78
2022-08-25T06:05:52.262Z,101148.19
2022-08-25T06:08:19.967Z,101144.00
2022-08-25T06:10:52.334Z,101145.59
2022-08-25T06:13:19.029Z,101135.03
2022-08-25T06:15:58.521Z,101133.16
2022-08-25T06:18:25.470Z,101128.63
2022-08-25T06:20:52.308Z,101126.22
2022-08-25T06:23:21.659Z,101129.91
2022-08-25T06:25:53.408Z,101132.28
2022-08-25T06:28:20.668Z,101127.59
2022-08-25T06:30:48.002Z,101128.47
2022-08-25T06:33:15.645Z,101124.06
2022-08-25T06:35:43.339Z,101123.78
2022-08-25T06:38:11.232Z,101120.06
2022-08-25T06:40:38.319Z,101121.72
2022-08-25T06:43:08.873Z,101127.31
2022-08-25T06:45:35.914Z,101125.56
2022-08-25T06:48:02.743Z,101117.72
2022-08-25T06:50:29.485Z,101127.38
2022-08-25T06:52:56.237Z,101120.09
2022-08-25T06:55:23.071Z,101121.34
2022-08-25T06:57:54.129Z,101118.53
2022-08-25T07:00:22.519Z,101121.97
2022-08-25T07:02:58.588Z,101124.03
2022-08-25T07:05:33.531Z,101125.84
2022-08-25T07:08:01.308Z,101123.34
2022-08-25T07:10:28.109Z,101116.97
2022-08-25T07:12:58.386Z,101120.94
2022-08-25T07:15:25.050Z,101120.00
2022-08-25T07:17:51.776Z,101120.03
2022-08-25T07:20:19.182Z,101125.31
2022-08-25T07:22:46.723Z,101119.53
2022-08-25T07:25:13.791Z,101118.59
2022-08-25T07:27:42.466Z,101116.03
2022-08-25T07:30:11.252Z,101116.50
2022-08-25T07:32:41.906Z,101109.53
2022-08-25T07:35:15.438Z,101111.72
2022-08-25T07:37:49.457Z,101112.22
2022-08-25T07:40:25.777Z,101112.97
2022-08-25T07:42:55.638Z,101122.50
2022-08-25T07:45:30.303Z,101118.13
2022-08-25T07:47:59.851Z,101119.31
2022-08-25T07:50:28.162Z,101121.28
2022-08-25T07:52:56.478Z,101121.78
2022-08-25T07:55:26.067Z,101122.28
2022-08-25T07:57:57.109Z,101122.97
2022-08-25T08:00:27.968Z,101128.53
2022-08-25T08:02:55.348Z,101124.50
2022-08-25T08:05:23.953Z,101129.25
2022-08-25T08:07:51.707Z,101125.84
2022-08-25T08:10:53.473Z,101123.38
2022-08-25T08:13:07.426Z,101120.31
2022-08-25T08:15:35.624Z,101125.44
2022-08-25T08:18:04.232Z,101122.25
2022-08-25T08:20:42.542Z,101109.75
2022-08-25T08:23:10.750Z,101105.34
2022-08-25T08:25:37.659Z,101110.00
2022-08-25T08:28:04.490Z,101110.31
2022-08-25T08:30:36.652Z,101111.00
2022-08-25T08:33:09.989Z,101115.06
2022-08-25T08:35:38.353Z,101118.78
2022-08-25T08:38:13.141Z,101113.13
2022-08-25T08:41:14.750Z,101110.41
2022-08-25T08:43:43.697Z,101114.81
2022-08-25T08:46:11.292Z,101111.50
2022-08-25T08:49:07.336Z,101104.59
2022-08-25T08:51:45.911Z,101112.34
2022-08-25T08:54:20.722Z,101099.34
2022-08-25T08:56:55.295Z,101096.97
2022-08-25T08:59:30.348Z,101100.50
2022-08-25T09:02:03.035Z,101094.59
2022-08-25T09:04:44.298Z,101097.13
2022-08-25T09:07:17.773Z,101087.97
2022-08-25T09:09:47.928Z,101085.59
2022-08-25T09:16:03.182Z,101087.34
2022-08-25T09:18:55.198Z,101084.47
2022-08-25T09:21:34.685Z,101082.63
2022-08-25T09:24:15.882Z,101082.81
2022-08-25T09:26:55.736Z,101079.72
2022-08-25T09:29:26.411Z,101076.13
2022-08-25T09:31:58.733Z,101075.28
2022-08-25T09:34:32.547Z,101078.94
2022-08-25T09:37:00.350Z,101067.38
2022-08-25T09:39:27.646Z,101065.72
2022-08-25T09:41:59.290Z,101064.25
2022-08-25T09:44:44.254Z,101062.59
2022-08-25T09:47:20.602Z,101054.69
2022-08-25T09:49:49.315Z,101051.34
2022-08-25T09:52:28.766Z,101047.34
2022-08-25T09:54:57.245Z,101048.09
2022-08-25T09:57:32.248Z,101047.94
2022-08-25T10:00:22.170Z,101041.94
2022-08-25T10:03:06.675Z,101047.94
2022-08-25T10:05:41.661Z,101040.19
2022-08-25T10:08:24.679Z,101041.81
2022-08-25T10:10:57.471Z,101040.13
2022-08-25T10:13:39.485Z,101034.38
2022-08-25T10:16:24.546Z,101029.78
2022-08-25T10:19:30.354Z,101031.00
2022-08-25T10:22:12.830Z,101031.00
2022-08-25T10:24:44.257Z,101040.38
2022-08-25T10:27:29.918Z,101033.53
2022-08-25T10:30:27.213Z,101028.00
2022-08-25T10:33:27.692Z,101035.28
2022-08-25T10:36:11.666Z,101019.91
2022-08-25T10:38:43.116Z,101017.66
2022-08-25T10:41:33.256Z,101011.75
2022-08-25T10:44:45.792Z,101010.13
2022-08-25T10:47:48.713Z,100999.47
2022-08-25T10:50:45.316Z,100999.25
2022-08-25T10:53:22.070Z,100996.41
2022-08-25T10:56:07.119Z,101000.94
2022-08-25T10:58:56.127Z,100993.22
2022-08-25T11:01:48.854Z,100992.59
2022-08-25T11:04:42.125Z,100993.41
2022-08-25T11:07:35.157Z,100998.81
2022-08-25T11:10:11.366Z,100982.59
2022-08-25T11:12:53.067Z,100977.78
2022-08-25T11:15:26.108Z,100978.41
2022-08-25T11:18:02.130Z,100979.19
2022-08-25T11:20:36.053Z,100973.06
2022-08-25T11:23:14.829Z,100977.88
2022-08-25T11:25:45.924Z,100983.63
2022-08-25T11:28:34.385Z,100979.97
2022-08-25T11:31:07.155Z,100979.00
2022-08-25T11:33:34.697Z,100973.72
2022-08-25T11:36:06.855Z,100971.72
2022-08-25T11:38:51.871Z,100970.22
2022-08-25T11:41:55.734Z,100965.41
2022-08-25T11:44:53.785Z,100969.28
2022-08-25T11:47:44.831Z,100967.38
2022-08-25T11:50:53.890Z,100963.75
2022-08-25T11:54:06.721Z,100963.88
2022-08-25T11:56:40.198Z,100952.97
2022-08-25T11:59:08.012Z,100951.50
2022-08-25T12:01:40.908Z,100951.72
2022-08-25T12:04:14.804Z,100954.09
2022-08-25T12:07:07.037Z,100947.88
2022-08-25T12:09:55.663Z,100949.38
2022-08-25T12:12:38.915Z,100953.47
2022-08-25T12:15:27.003Z,100945.09
2022-08-25T12:18:13.017Z,100950.84
2022-08-25T12:20:56.369Z,100948.34
2022-08-25T12:23:45.088Z,100947.53
2022-08-25T12:26:17.994Z,100935.03
2022-08-25T12:28:50.715Z,100933.06
2022-08-25T12:31:23.090Z,100944.50
2022-08-25T12:34:00.890Z,100942.78
2022-08-25T12:36:33.565Z,100939.13
2022-08-25T12:39:24.215Z,100931.84
2022-08-25T12:41:58.833Z,100933.34
2022-08-25T12:44:42.684Z,100919.84
2022-08-25T12:47:19.607Z,100912.66
2022-08-25T12:49:50.967Z,100921.31
2022-08-25T12:52:21.643Z,100922.41
2022-08-25T12:55:06.125Z,100921.41
2022-08-25T12:57:57.700Z,100915.25
2022-08-25T13:03:09.302Z,100901.38
2022-08-25T13:05:58.569Z,100894.53
2022-08-25T13:08:46.871Z,100902.69
2022-08-25T13:11:22.380Z,100895.66
2022-08-25T13:14:04.189Z,100904.53
2022-08-25T13:16:31.450Z,100892.88
2022-08-25T13:18:59.636Z,100890.97
2022-08-25T13:21:44.260Z,100892.38
2022-08-25T13:24:27.884Z,100893.88
2022-08-25T13:26:57.469Z,100889.03
2022-08-25T13:29:27.226Z,100886.28
2022-08-25T13:32:09.101Z,100877.59
2022-08-25T13:34:39.120Z,100884.00
2022-08-25T13:37:30.324Z,100883.00
2022-08-25T13:40:17.838Z,100877.50
2022-08-25T13:42:54.488Z,100876.09
2022-08-25T13:45:31.762Z,100868.44
2022-08-25T13:47:59.198Z,100868.53
2022-08-25T13:50:26.365Z,100872.31
2022-08-25T13:53:08.675Z,100863.22
2022-08-25T13:55:53.709Z,100865.16
2022-08-25T13:58:44.545Z,100861.38
2022-08-25T14:01:49.505Z,100860.41
2022-08-25T14:04:27.848Z,100859.06
2022-08-25T14:07:33.993Z,100855.31
2022-08-25T14:10:06.046Z,100851.16
2022-08-25T14:12:46.446Z,100860.16
2022-08-25T14:15:29.517Z,100852.16
2022-08-25T14:18:01.907Z,100850.81
2022-08-25T14:20:31.063Z,100854.84
2022-08-25T14:23:01.837Z,100850.84
2022-08-25T14:25:30.548Z,100847.41
2022-08-25T14:28:06.718Z,100849.25
2022-08-25T14:30:36.566Z,100845.84
2022-08-25T14:33:04.262Z,100848.94
2022-08-25T14:35:31.464Z,100854.38
2022-08-25T14:37:59.316Z,100851.34
2022-08-25T14:40:28.052Z,100849.75
2022-08-25T14:42:57.575Z,100843.00
2022-08-25T14:45:24.469Z,100841.72
2022-08-25T14:47:51.280Z,100844.88
2022-08-25T14:50:20.868Z,100846.63
2022-08-25T14:52:48.359Z,100838.13
2022-08-25T14:55:31.774Z,100836.53
2022-08-25T14:57:59.613Z,100831.38
2022-08-25T15:00:26.419Z,100839.22
2022-08-25T15:02:55.026Z,100828.50
2022-08-25T15:05:26.899Z,100825.47
2022-08-25T15:08:13.813Z,100830.25
2022-08-25T15:10:40.791Z,100817.31
2022-08-25T15:13:07.721Z,100822.66
2022-08-25T15:15:39.125Z,100815.91
2022-08-25T15:18:19.897Z,100814.53
2022-08-25T15:20:47.128Z,100809.50
2022-08-25T15:23:18.662Z,100802.66
2022-08-25T15:25:52.857Z,100804.47
2022-08-25T15:28:21.914Z,100804.84
2022-08-25T15:30:49.492Z,100794.31
2022-08-25T15:33:16.173Z,100795.09
2022-08-25T15:35:43.453Z,100794.53
2022-08-25T15:38:12.061Z,100794.69
2022-08-25T15:40:39.827Z,100790.44
2022-08-25T15:43:07.060Z,100790.97
2022-08-25T15:45:36.103Z,100793.53
2022-08-25T15:48:06.769Z,100776.94
2022-08-25T15:50:36.566Z,100785.19
2022-08-25T15:53:03.351Z,100786.91
2022-08-25T15:55:30.415Z,100780.75
2022-08-25T15:58:00.525Z,100778.19
2022-08-25T16:00:27.154Z,100772.78
2022-08-25T16:02:58.466Z,100773.66
2022-08-25T16:05:26.159Z,100780.88
2022-08-25T16:07:53.725Z,100772.94
2022-08-25T16:10:21.119Z,100770.16
2022-08-25T16:12:48.664Z,100760.97
2022-08-25T16:15:16.132Z,100773.34
2022-08-25T16:17:45.934Z,100764.09
2022-08-25T16:20:17.230Z,100755.00
2022-08-25T16:22:45.028Z,100760.09
2022-08-25T16:25:11.736Z,100759.25
2022-08-25T16:27:39.223Z,100758.19
2022-08-25T16:30:14.945Z,100758.28
2022-08-25T16:32:44.143Z,100754.91
2022-08-25T16:35:11.356Z,100751.25
2022-08-25T16:37:38.110Z,100750.44
2022-08-25T16:40:06.156Z,100747.91
2022-08-25T16:42:33.482Z,100756.84
2022-08-25T16:45:00.644Z,100739.38
2022-08-25T16:47:27.241Z,100758.25
2022-08-25T16:49:54.049Z,100745.19
2022-08-25T16:52:44.428Z,100750.31
2022-08-25T16:55:16.308Z,100747.03
2022-08-25T16:57:47.514Z,100747.59
2022-08-25T17:03:04.941Z,100730.84
2022-08-25T17:05:33.657Z,100725.00
2022-08-25T17:08:19.706Z,100727.44
2022-08-25T17:10:47.066Z,100729.16
2022-08-25T17:13:14.468Z,100732.53
2022-08-25T17:15:47.144Z,100733.69
2022-08-25T17:18:14.098Z,100733.53
2022-08-25T17:20:45.259Z,100729.44
2022-08-25T17:23:13.226Z,100733.41
2022-08-25T17:25:43.219Z,100734.97
2022-08-25T17:28:12.037Z,100730.59
2022-08-25T17:30:39.603Z,100736.00
2022-08-25T17:33:06.771Z,100730.97
2022-08-25T17:35:40.134Z,100730.84
2022-08-25T17:38:07.564Z,100727.03
2022-08-25T17:40:35.932Z,100735.97
2022-08-25T17:43:02.703Z,100735.69
2022-08-25T17:45:29.649Z,100741.09
2022-08-25T17:47:57.820Z,100735.97
2022-08-25T17:50:25.183Z,100747.19
2022-08-25T17:52:52.499Z,100741.38
2022-08-25T17:55:24.154Z,100743.63
2022-08-25T17:57:51.494Z,100739.94
2022-08-25T18:00:20.052Z,100749.47
2022-08-25T18:02:48.097Z,100744.94
2022-08-25T18:05:15.757Z,100745.66
2022-08-25T18:07:42.576Z,100749.88
2022-08-25T18:10:11.439Z,100750.03
2022-08-25T18:12:38.855Z,100751.59
2022-08-25T18:15:06.904Z,100750.47
2022-08-25T18:17:35.846Z,100755.00
2022-08-25T18:20:06.213Z,100757.72
2022-08-25T18:22:33.931Z,100770.66
2022-08-25T18:25:06.818Z,100767.38
2022-08-25T18:27:34.247Z,100768.47
2022-08-25T18:30:01.565Z,100772.91
2022-08-25T18:32:29.349Z,100773.34
2022-08-25T18:34:56.923Z,100774.63
2022-08-25T18:37:42.873Z,100779.44
2022-08-25T18:40:22.883Z,100773.50
2022-08-25T18:42:58.669Z,100782.31
2022-08-25T18:45:42.258Z,100774.66
2022-08-25T18:48:09.623Z,100790.00
2022-08-25T18:50:40.434Z,100784.56
2022-08-25T18:53:08.603Z,100792.97
2022-08-25T18:55:35.984Z,100792.81
2022-08-25T18:58:04.281Z,100794.19
2022-08-25T19:00:32.415Z,100796.00
2022-08-25T19:03:00.728Z,100799.44
2022-08-25T19:05:33.271Z,100801.53
2022-08-25T19:08:02.957Z,100797.72
2022-08-25T19:10:30.911Z,100804.00
2022-08-25T19:12:58.474Z,100800.50
2022-08-25T19:15:35.232Z,100811.19
2022-08-25T19:18:02.190Z,100813.50
2022-08-25T19:20:31.638Z,100817.03
2022-08-25T19:22:58.584Z,100819.28
2022-08-25T19:25:25.765Z,100826.13
2022-08-25T19:28:00.993Z,100826.72
2022-08-25T19:30:30.405Z,100837.22
2022-08-25T19:32:57.894Z,100837.81
2022-08-25T19:35:31.827Z,100834.63
2022-08-25T19:38:01.000Z,100839.50
2022-08-25T19:40:30.090Z,100839.75
2022-08-25T19:42:58.010Z,100841.75
2022-08-25T19:45:25.562Z,100844.63
2022-08-25T19:47:52.359Z,100846.75
2022-08-25T19:50:20.801Z,100850.31
2022-08-25T19:52:48.270Z,100845.06
2022-08-25T19:55:17.423Z,100850.28
2022-08-25T19:57:44.382Z,100848.72
2022-08-25T20:00:21.429Z,100844.03
2022-08-25T20:02:48.955Z,100844.03
2022-08-25T20:05:23.532Z,100850.75
2022-08-25T20:07:52.425Z,100842.94
2022-08-25T20:10:20.393Z,100853.25
2022-08-25T20:12:48.043Z,100847.31
2022-08-25T20:15:16.626Z,100845.06
2022-08-25T20:17:45.068Z,100849.75
2022-08-25T20:20:16.548Z,100854.56
2022-08-25T20:22:43.499Z,100853.44
2022-08-25T20:25:19.383Z,100850.88
2022-08-25T20:27:56.197Z,100853.84
2022-08-25T20:30:29.646Z,100854.44
2022-08-25T20:32:57.725Z,100855.00
2022-08-25T20:35:26.970Z,100855.13
2022-08-25T20:37:54.742Z,100861.09
2022-08-25T20:40:25.440Z,100855.72
2022-08-25T20:42:53.070Z,100859.66
2022-08-25T20:45:24.521Z,100861.78
2022-08-25T20:47:51.418Z,100857.09
2022-08-25T20:50:18.809Z,100866.47
2022-08-25T20:52:45.635Z,100867.91
2022-08-25T20:55:23.337Z,100873.88
2022-08-25T20:57:51.386Z,100869.63
2022-08-25T21:00:19.528Z,100876.16
2022-08-25T21:02:50.961Z,100877.84
2022-08-25T21:05:19.656Z,100882.66
2022-08-25T21:07:47.419Z,100881.22
2022-08-25T21:10:17.288Z,100884.63
2022-08-25T21:12:46.060Z,100881.22
2022-08-25T21:15:18.005Z,100875.47
2022-08-25T21:17:52.630Z,100888.50
2022-08-25T21:20:23.813Z,100884.09
2022-08-25T21:22:51.530Z,100884.59
2022-08-25T21:25:20.567Z,100881.44
2022-08-25T21:27:47.982Z,100879.56
2022-08-25T21:30:17.006Z,100875.97
2022-08-25T21:32:52.724Z,100882.75
2022-08-25T21:35:20.473Z,100871.16
2022-08-25T21:37:53.062Z,100879.56
2022-08-25T21:40:23.101Z,100878.38
2022-08-25T21:42:50.792Z,100884.50
2022-08-25T21:45:20.957Z,100877.41
2022-08-25T21:47:48.496Z,100883.41
2022-08-25T21:50:15.325Z,100885.03
2022-08-25T21:52:42.411Z,100879.13
2022-08-25T21:55:15.885Z,100882.69
2022-08-25T21:57:43.230Z,100873.75
2022-08-25T22:00:13.452Z,100865.16
2022-08-25T22:02:40.173Z,100876.69
2022-08-25T22:05:10.798Z,100879.00
2022-08-25T22:07:40.399Z,100877.22
2022-08-25T22:10:16.453Z,100873.38
2022-08-25T22:12:58.536Z,100873.41
2022-08-25T22:15:28.672Z,100874.84
2022-08-25T22:17:55.303Z,100876.81
2022-08-25T22:20:25.266Z,100867.22
2022-08-25T22:22:52.261Z,100865.72
2022-08-25T22:25:19.056Z,100870.78
2022-08-25T22:27:47.525Z,100868.81
2022-08-25T22:30:29.598Z,100871.59
2022-08-25T22:33:00.159Z,100872.16
2022-08-25T22:35:27.781Z,100875.59
2022-08-25T22:37:54.558Z,100872.91
2022-08-25T22:40:21.247Z,100879.13
2022-08-25T22:42:48.376Z,100868.16
2022-08-25T22:45:15.154Z,100874.06
2022-08-25T22:47:42.867Z,100865.94
2022-08-25T22:50:10.075Z,100874.69
2022-08-25T22:52:38.157Z,100867.13
2022-08-25T22:55:11.266Z,100861.53
2022-08-25T22:57:39.101Z,100864.50
2022-08-25T23:00:09.484Z,100860.53
2022-08-25T23:02:36.674Z,100863.22
2022-08-25T23:05:04.178Z,100853.66
2022-08-25T23:07:36.900Z,100858.09
2022-08-25T23:10:07.959Z,100861.19
2022-08-25T23:12:35.154Z,100854.88
2022-08-25T23:15:01.993Z,100851.03
2022-08-25T23:17:29.728Z,100851.03
2022-08-25T23:19:56.577Z,100851.34
2022-08-25T23:22:23.293Z,100854.69
2022-08-25T23:24:53.485Z,100851.09
2022-08-25T23:27:21.604Z,100843.31
2022-08-25T23:29:49.802Z,100841.81
2022-08-25T23:32:18.467Z,100842.19
2022-08-25T23:34:46.991Z,100842.53
2022-08-25T23:37:15.198Z,100835.81
2022-08-25T23:39:45.508Z,100838.59
2022-08-25T23:42:12.288Z,100836.34
2022-08-25T23:44:40.925Z,100841.75
2022-08-25T23:47:07.929Z,100839.50
2022-08-25T23:49:39.343Z,100833.00
2022-08-25T23:52:06.121Z,100836.28
2022-08-25T23:54:32.924Z,100830.44
2022-08-25T23:57:00.308Z,100824.06
2022-08-25T23:59:28.527Z,100826.03
